createdAt,value
2017-11-21T00:02:09.510Z,67.21
2017-11-21T00:04:35.912Z,67.44
2017-11-21T00:07:02.346Z,67.46
2017-11-21T00:09:28.791Z,66.95
2017-11-21T00:11:56.043Z,66.91
2017-11-21T00:14:22.470Z,66.57
2017-11-21T00:16:48.905Z,66.55
2017-11-21T00:19:15.338Z,66.40
2017-11-21T00:21:41.785Z,65.86
2017-11-21T00:24:08.218Z,66.15
2017-11-21T00:26:34.644Z,65.87
2017-11-21T00:29:01.794Z,65.66
2017-11-21T00:31:28.167Z,65.62
2017-11-21T00:33:54.561Z,65.55
2017-11-21T00:36:21.003Z,65.98
2017-11-21T00:38:47.431Z,65.30
2017-11-21T00:41:13.870Z,65.51
2017-11-21T00:43:40.301Z,65.72
2017-11-21T00:46:07.492Z,65.92
2017-11-21T00:48:33.885Z,65.19
2017-11-21T00:51:00.320Z,65.80
2017-11-21T00:53:26.857Z,65.88
2017-11-21T00:55:53.292Z,66.17
2017-11-21T00:58:19.727Z,65.82
2017-11-21T01:00:46.161Z,66.38
2017-11-21T01:03:13.313Z,66.50
2017-11-21T01:05:39.755Z,67.24
2017-11-21T01:08:06.190Z,67.68
2017-11-21T01:10:32.616Z,67.77
2017-11-21T01:12:59.052Z,67.65
2017-11-21T01:15:25.486Z,67.77
2017-11-21T01:17:51.930Z,67.83
2017-11-21T01:20:19.058Z,67.92
2017-11-21T01:22:45.475Z,68.02
2017-11-21T01:25:11.943Z,67.90
2017-11-21T01:27:38.385Z,68.16
2017-11-21T01:30:04.818Z,68.00
2017-11-21T01:32:31.347Z,67.86
2017-11-21T01:34:57.791Z,67.95
2017-11-21T01:37:24.932Z,68.01
2017-11-21T01:39:51.368Z,67.77
2017-11-21T01:42:17.803Z,67.61
2017-11-21T01:44:44.134Z,67.80
2017-11-21T01:47:10.671Z,68.03
2017-11-21T01:49:37.106Z,67.96
2017-11-21T01:52:03.508Z,67.70
2017-11-21T01:54:30.691Z,67.79
2017-11-21T01:56:57.127Z,67.83
2017-11-21T01:59:23.571Z,67.62
2017-11-21T02:01:49.996Z,67.36
2017-11-21T02:04:16.430Z,67.46
2017-11-21T02:06:42.865Z,67.71
2017-11-21T02:09:09.310Z,67.61
2017-11-21T02:11:36.440Z,67.66
2017-11-21T02:14:02.895Z,67.45
2017-11-21T02:16:29.423Z,67.65
2017-11-21T02:18:55.866Z,67.86
2017-11-21T02:21:22.299Z,68.12
2017-11-21T02:23:48.726Z,68.00
2017-11-21T02:26:15.163Z,68.12
2017-11-21T02:28:42.327Z,68.13
2017-11-21T02:31:08.769Z,68.19
2017-11-21T02:33:35.182Z,68.58
2017-11-21T02:36:01.617Z,67.98
2017-11-21T02:38:28.027Z,68.15
2017-11-21T02:40:54.484Z,68.00
2017-11-21T02:43:20.923Z,68.41
2017-11-21T02:45:48.082Z,68.16
2017-11-21T02:48:14.617Z,68.57
2017-11-21T02:50:41.044Z,68.58
2017-11-21T02:53:07.482Z,68.72
2017-11-21T02:55:33.915Z,69.09
2017-11-21T02:58:00.351Z,68.96
2017-11-21T03:00:26.885Z,69.35
2017-11-21T03:02:54.040Z,69.70
2017-11-21T03:05:20.471Z,69.42
2017-11-21T03:07:46.906Z,69.63
2017-11-21T03:10:13.340Z,68.98
2017-11-21T03:12:39.782Z,69.61
2017-11-21T03:15:06.106Z,69.67
2017-11-21T03:17:32.544Z,69.96
2017-11-21T03:19:59.692Z,70.01
2017-11-21T03:22:26.126Z,69.87
2017-11-21T03:24:52.674Z,70.20
2017-11-21T03:27:19.100Z,70.27
2017-11-21T03:29:45.540Z,70.50
2017-11-21T03:32:11.977Z,70.63
2017-11-21T03:34:38.368Z,70.68
2017-11-21T03:37:05.665Z,70.87
2017-11-21T03:39:32.094Z,71.05
2017-11-21T03:41:58.637Z,71.14
2017-11-21T03:44:25.062Z,71.15
2017-11-21T03:46:51.433Z,71.27
2017-11-21T03:49:17.829Z,70.87
2017-11-21T03:51:44.263Z,71.68
2017-11-21T03:54:11.423Z,71.61
2017-11-21T03:56:37.850Z,71.66
2017-11-21T03:59:04.294Z,71.77
2017-11-21T04:01:30.712Z,72.10
2017-11-21T04:03:57.162Z,72.33
2017-11-21T04:06:23.639Z,72.33
2017-11-21T04:08:49.980Z,72.67
2017-11-21T04:11:17.286Z,72.86
2017-11-21T04:13:43.721Z,72.97
2017-11-21T04:16:10.153Z,73.06
2017-11-21T04:18:36.589Z,73.05
2017-11-21T04:21:02.993Z,73.10
2017-11-21T04:23:29.450Z,73.47
2017-11-21T04:25:55.897Z,73.61
2017-11-21T04:28:23.044Z,73.60
2017-11-21T04:30:49.441Z,73.43
2017-11-21T04:33:15.905Z,73.64
2017-11-21T04:35:42.340Z,73.93
2017-11-21T04:38:08.887Z,73.78
2017-11-21T04:40:35.311Z,73.66
2017-11-21T04:43:01.749Z,73.63
2017-11-21T04:45:29.009Z,73.35
2017-11-21T04:47:55.435Z,73.48
2017-11-21T04:50:21.981Z,73.30
2017-11-21T04:52:48.414Z,73.65
2017-11-21T04:55:14.849Z,73.45
2017-11-21T04:57:41.173Z,73.45
2017-11-21T05:00:07.607Z,73.84
2017-11-21T05:02:34.758Z,73.99
2017-11-21T05:05:01.205Z,74.15
2017-11-21T05:07:27.629Z,74.08
2017-11-21T05:09:54.071Z,74.24
2017-11-21T05:12:20.505Z,74.18
2017-11-21T05:14:46.932Z,74.42
2017-11-21T05:17:13.366Z,74.62
2017-11-21T05:19:40.619Z,74.75
2017-11-21T05:22:07.055Z,74.84
2017-11-21T05:24:33.424Z,74.96
2017-11-21T05:26:59.935Z,74.93
2017-11-21T05:29:26.316Z,75.17
2017-11-21T05:31:52.758Z,75.37
2017-11-21T05:34:19.228Z,75.48
2017-11-21T05:36:46.379Z,75.59
2017-11-21T05:39:12.822Z,75.50
2017-11-21T05:41:39.257Z,75.69
2017-11-21T05:44:05.687Z,75.50
2017-11-21T05:46:32.126Z,75.43
2017-11-21T05:48:58.552Z,75.40
2017-11-21T05:51:24.997Z,75.42
2017-11-21T05:53:52.138Z,75.54
2017-11-21T05:56:18.573Z,75.22
2017-11-21T05:58:45.016Z,75.16
2017-11-21T06:01:11.442Z,74.97
2017-11-21T06:03:37.877Z,74.75
2017-11-21T06:08:36.380Z,74.49
2017-11-21T06:11:02.916Z,74.65
2017-11-21T06:13:29.359Z,74.49
2017-11-21T06:15:55.789Z,74.08
2017-11-21T06:18:22.330Z,74.48
2017-11-21T06:20:48.868Z,74.42
2017-11-21T06:23:15.294Z,74.10
2017-11-21T06:25:41.738Z,73.61
2017-11-21T06:28:08.163Z,73.17
2017-11-21T06:30:34.598Z,72.88
2017-11-21T06:33:01.038Z,72.50
2017-11-21T06:35:27.615Z,72.08
2017-11-21T06:37:54.091Z,71.88
2017-11-21T06:40:20.543Z,72.07
2017-11-21T06:42:48.296Z,71.99
2017-11-21T06:45:14.742Z,71.87
2017-11-21T06:47:41.589Z,71.86
2017-11-21T06:50:08.227Z,71.61
2017-11-21T06:52:34.660Z,71.14
2017-11-21T06:55:01.410Z,70.62
2017-11-21T06:57:29.314Z,71.07
2017-11-21T06:59:56.835Z,69.87
2017-11-21T07:02:24.202Z,69.84
2017-11-21T07:04:51.202Z,69.39
2017-11-21T07:07:17.933Z,68.29
2017-11-21T07:09:45.260Z,68.55
2017-11-21T07:12:11.754Z,68.78
2017-11-21T07:14:38.211Z,67.82
2017-11-21T07:17:04.653Z,67.88
2017-11-21T07:19:31.288Z,68.09
2017-11-21T07:21:57.712Z,67.96
2017-11-21T07:24:24.249Z,67.17
2017-11-21T07:26:51.204Z,66.13
2017-11-21T07:29:18.387Z,66.80
2017-11-21T07:31:44.994Z,66.58
2017-11-21T07:34:11.932Z,65.32
2017-11-21T07:36:38.370Z,64.27
2017-11-21T07:39:05.109Z,64.46
2017-11-21T07:41:32.056Z,63.83
2017-11-21T07:43:58.476Z,62.41
2017-11-21T07:46:24.926Z,62.67
2017-11-21T07:48:51.436Z,62.46
2017-11-21T07:51:18.518Z,62.80
2017-11-21T07:53:44.944Z,61.66
2017-11-21T07:56:11.382Z,61.30
2017-11-21T07:58:38.026Z,62.07
2017-11-21T08:01:04.566Z,62.29
2017-11-21T08:03:30.991Z,62.45
2017-11-21T08:05:58.653Z,62.12
2017-11-21T08:08:25.395Z,60.93
2017-11-21T08:10:51.913Z,60.04
2017-11-21T08:13:18.573Z,60.23
2017-11-21T08:15:45.008Z,60.61
2017-11-21T08:18:11.471Z,60.30
2017-11-21T08:20:37.979Z,61.02
2017-11-21T08:23:04.552Z,61.06
2017-11-21T08:25:31.573Z,61.77
2017-11-21T08:27:57.995Z,60.59
2017-11-21T08:30:24.536Z,60.28
2017-11-21T08:32:50.971Z,60.69
2017-11-21T08:35:18.437Z,60.13
2017-11-21T08:37:44.863Z,59.99
2017-11-21T08:40:11.818Z,59.49
2017-11-21T08:42:38.245Z,60.45
2017-11-21T08:45:04.793Z,58.18
2017-11-21T08:47:31.225Z,59.17
2017-11-21T08:49:58.422Z,57.97
2017-11-21T08:52:24.879Z,58.09
2017-11-21T08:54:51.344Z,58.10
2017-11-21T08:57:17.993Z,58.48
2017-11-21T08:59:44.517Z,57.68
2017-11-21T09:02:11.064Z,57.70
2017-11-21T09:04:37.799Z,58.00
2017-11-21T09:07:04.340Z,58.33
2017-11-21T09:09:30.923Z,57.87
2017-11-21T09:11:58.327Z,57.11
2017-11-21T09:14:24.771Z,56.74
2017-11-21T09:16:51.212Z,56.72
2017-11-21T09:19:18.151Z,56.22
2017-11-21T09:21:44.578Z,56.31
2017-11-21T09:24:11.019Z,56.01
2017-11-21T09:26:37.660Z,55.52
2017-11-21T09:29:04.088Z,55.78
2017-11-21T09:31:32.931Z,55.28
2017-11-21T09:33:59.795Z,55.14
2017-11-21T09:36:26.236Z,54.67
2017-11-21T09:38:52.686Z,54.57
2017-11-21T09:41:19.334Z,52.35
2017-11-21T09:43:45.768Z,53.10
2017-11-21T09:46:12.611Z,52.80
2017-11-21T09:48:39.358Z,52.66
2017-11-21T09:51:05.864Z,51.55
2017-11-21T09:53:32.307Z,51.48
2017-11-21T09:55:59.270Z,53.25
2017-11-21T09:58:25.704Z,53.16
2017-11-21T10:00:52.140Z,51.35
2017-11-21T10:03:18.781Z,52.79
2017-11-21T10:05:45.220Z,50.53
2017-11-21T10:08:11.864Z,50.10
2017-11-21T10:10:38.804Z,50.84
2017-11-21T10:13:05.244Z,50.96
2017-11-21T10:15:33.358Z,52.97
2017-11-21T10:18:00.052Z,51.89
2017-11-21T10:20:26.586Z,52.06
2017-11-21T10:22:53.131Z,52.28
2017-11-21T10:25:20.071Z,51.52
2017-11-21T10:27:46.526Z,51.55
2017-11-21T10:30:13.054Z,51.66
2017-11-21T10:32:39.987Z,52.66
2017-11-21T10:35:06.531Z,52.35
2017-11-21T10:37:32.960Z,52.32
2017-11-21T10:39:59.581Z,53.71
2017-11-21T10:42:26.034Z,53.69
2017-11-21T10:44:52.475Z,53.43
2017-11-21T10:47:19.350Z,52.37
2017-11-21T10:49:45.851Z,52.97
2017-11-21T10:52:12.968Z,52.15
2017-11-21T10:54:39.538Z,53.02
2017-11-21T10:57:06.076Z,51.65
2017-11-21T10:59:32.963Z,52.47
2017-11-21T11:01:59.388Z,52.08
2017-11-21T11:04:25.891Z,53.00
2017-11-21T11:06:52.619Z,52.36
2017-11-21T11:09:19.169Z,52.02
2017-11-21T11:11:45.605Z,51.10
2017-11-21T11:14:12.551Z,49.85
2017-11-21T11:16:39.199Z,50.27
2017-11-21T11:19:05.802Z,49.78
2017-11-21T11:21:32.266Z,50.56
2017-11-21T11:23:59.219Z,50.07
2017-11-21T11:26:25.749Z,48.89
2017-11-21T11:28:52.286Z,49.07
2017-11-21T11:31:18.820Z,47.97
2017-11-21T11:33:45.563Z,48.52
2017-11-21T11:36:12.306Z,48.60
2017-11-21T11:38:38.842Z,48.57
2017-11-21T11:41:05.902Z,47.93
2017-11-21T11:43:32.634Z,49.06
2017-11-21T11:45:59.276Z,49.79
2017-11-21T11:48:25.708Z,49.98
2017-11-21T11:50:52.868Z,48.80
2017-11-21T11:53:19.303Z,47.51
2017-11-21T11:55:45.728Z,47.86
2017-11-21T11:58:12.555Z,47.21
2017-11-21T12:00:39.113Z,44.63
2017-11-21T12:03:05.554Z,44.81
2017-11-21T12:05:32.596Z,44.01
2017-11-21T12:07:59.337Z,43.93
2017-11-21T12:10:25.871Z,43.47
2017-11-21T12:12:52.418Z,43.25
2017-11-21T12:15:18.852Z,43.80
2017-11-21T12:17:45.289Z,45.54
2017-11-21T12:20:11.815Z,46.02
2017-11-21T12:22:38.664Z,45.30
2017-11-21T12:25:05.197Z,45.29
2017-11-21T12:27:31.684Z,42.97
2017-11-21T12:29:58.177Z,42.95
2017-11-21T12:32:24.603Z,42.40
2017-11-21T12:34:51.090Z,42.00
2017-11-21T12:37:17.987Z,42.42
2017-11-21T12:39:44.499Z,43.89
2017-11-21T12:42:10.941Z,44.91
2017-11-21T12:44:37.326Z,45.85
2017-11-21T12:47:04.259Z,46.13
2017-11-21T12:49:30.778Z,46.45
2017-11-21T12:51:57.211Z,46.61
2017-11-21T12:54:23.959Z,44.93
2017-11-21T12:56:50.388Z,42.42
2017-11-21T12:59:16.931Z,40.64
2017-11-21T13:01:43.973Z,41.56
2017-11-21T13:04:10.510Z,42.71
2017-11-21T13:06:38.174Z,43.33
2017-11-21T13:09:05.225Z,41.83
2017-11-21T13:11:31.857Z,42.63
2017-11-21T13:13:58.395Z,42.80
2017-11-21T13:16:25.964Z,43.15
2017-11-21T13:18:52.606Z,44.78
2017-11-21T13:21:19.399Z,44.48
2017-11-21T13:23:46.394Z,45.62
2017-11-21T13:26:12.932Z,46.46
2017-11-21T13:28:39.428Z,47.42
2017-11-21T13:31:06.392Z,47.98
2017-11-21T13:33:33.047Z,48.57
2017-11-21T13:35:59.686Z,49.01
2017-11-21T13:38:26.633Z,49.63
2017-11-21T13:40:53.177Z,50.28
2017-11-21T13:43:20.007Z,50.02
2017-11-21T13:45:46.763Z,50.04
2017-11-21T13:48:13.638Z,48.57
2017-11-21T13:50:40.863Z,48.64
2017-11-21T13:53:07.910Z,49.51
2017-11-21T13:55:34.440Z,47.16
2017-11-21T13:58:01.321Z,44.28
2017-11-21T14:00:27.962Z,41.86
2017-11-21T14:02:54.564Z,40.62
2017-11-21T14:05:21.213Z,39.60
2017-11-21T14:07:47.647Z,39.26
2017-11-21T14:10:14.481Z,39.17
2017-11-21T14:12:41.018Z,39.32
2017-11-21T14:15:07.634Z,38.97
2017-11-21T14:17:34.612Z,38.95
2017-11-21T14:20:01.150Z,39.75
2017-11-21T14:22:27.550Z,41.05
2017-11-21T14:24:54.247Z,42.16
2017-11-21T14:27:20.751Z,42.83
2017-11-21T14:29:48.005Z,43.26
2017-11-21T14:32:14.747Z,44.60
2017-11-21T14:34:41.293Z,45.71
2017-11-21T14:37:07.814Z,46.64
2017-11-21T14:39:34.573Z,47.66
2017-11-21T14:42:01.109Z,48.53
2017-11-21T14:44:27.954Z,49.15
2017-11-21T14:46:54.586Z,49.87
2017-11-21T14:49:21.225Z,50.21
2017-11-21T14:51:47.769Z,51.03
2017-11-21T14:54:14.604Z,52.73
2017-11-21T14:56:41.014Z,53.62
2017-11-21T14:59:07.482Z,54.10
2017-11-21T15:01:34.326Z,54.26
2017-11-21T15:04:00.769Z,54.66
2017-11-21T15:06:27.187Z,55.21
2017-11-21T15:08:54.208Z,55.98
2017-11-21T15:11:20.645Z,56.20
2017-11-21T15:13:47.042Z,57.19
2017-11-21T15:16:14.576Z,57.36
2017-11-21T15:18:41.001Z,56.66
2017-11-21T15:21:07.548Z,56.30
2017-11-21T15:23:34.585Z,56.78
2017-11-21T15:26:01.021Z,57.83
2017-11-21T15:28:27.453Z,58.09
2017-11-21T15:30:53.999Z,57.96
2017-11-21T15:33:20.400Z,57.79
2017-11-21T15:35:46.843Z,58.56
2017-11-21T15:38:13.296Z,59.87
2017-11-21T15:40:39.730Z,59.55
2017-11-21T15:43:06.174Z,59.67
2017-11-21T15:45:32.686Z,60.34
2017-11-21T15:47:59.137Z,61.05
2017-11-21T15:50:25.878Z,61.68
2017-11-21T15:52:52.312Z,61.91
2017-11-21T15:55:18.755Z,61.80
2017-11-21T15:57:45.183Z,62.70
2017-11-21T16:00:11.621Z,63.19
2017-11-21T16:02:37.949Z,63.79
2017-11-21T16:05:04.383Z,63.41
2017-11-21T16:07:30.816Z,63.49
2017-11-21T16:09:57.253Z,63.63
2017-11-21T16:12:23.689Z,64.15
2017-11-21T16:14:50.120Z,64.30
2017-11-21T16:17:16.563Z,63.92
2017-11-21T16:19:42.991Z,63.49
2017-11-21T16:22:09.424Z,62.88
2017-11-21T16:24:35.858Z,62.33
2017-11-21T16:27:02.304Z,62.58
2017-11-21T16:29:28.730Z,62.83
2017-11-21T16:31:55.172Z,63.73
2017-11-21T16:34:21.597Z,63.81
2017-11-21T16:36:47.930Z,64.04
2017-11-21T16:39:14.365Z,63.98
2017-11-21T16:41:40.782Z,62.26
2017-11-21T16:44:07.238Z,61.04
2017-11-21T16:46:33.667Z,60.38
2017-11-21T16:49:00.112Z,60.75
2017-11-21T16:51:26.625Z,58.89
2017-11-21T16:53:53.690Z,58.87
2017-11-21T16:56:20.133Z,58.80
2017-11-21T16:58:46.765Z,58.88
2017-11-21T17:01:13.199Z,58.31
2017-11-21T17:03:39.659Z,60.12
2017-11-21T17:06:06.029Z,61.65
2017-11-21T17:08:32.506Z,62.09
2017-11-21T17:10:59.755Z,62.67
2017-11-21T17:13:26.198Z,63.00
2017-11-21T17:15:52.750Z,62.78
2017-11-21T17:18:19.271Z,62.98
2017-11-21T17:20:45.708Z,62.55
2017-11-21T17:23:12.133Z,61.72
2017-11-21T17:25:38.671Z,61.79
2017-11-21T17:28:05.830Z,61.97
2017-11-21T17:30:32.264Z,61.87
2017-11-21T17:32:58.700Z,62.29
2017-11-21T17:35:25.125Z,62.99
2017-11-21T17:37:51.560Z,63.21
2017-11-21T17:40:18.003Z,62.95
2017-11-21T17:42:44.431Z,61.95
2017-11-21T17:45:11.684Z,62.29
2017-11-21T17:47:38.123Z,61.72
2017-11-21T17:50:04.648Z,61.43
2017-11-21T17:52:31.056Z,61.81
2017-11-21T17:54:57.534Z,62.14
2017-11-21T17:57:23.922Z,62.55
2017-11-21T17:59:50.382Z,62.37
2017-11-21T18:02:17.544Z,62.96
2017-11-21T18:04:43.978Z,63.33
2017-11-21T18:07:10.414Z,63.54
2017-11-21T18:09:36.887Z,62.06
2017-11-21T18:12:03.397Z,60.40
2017-11-21T18:14:29.825Z,60.47
2017-11-21T18:16:56.256Z,61.84
2017-11-21T18:19:23.520Z,61.62
2017-11-21T18:21:49.911Z,61.81
2017-11-21T18:24:16.353Z,62.40
2017-11-21T18:26:42.812Z,62.99
2017-11-21T18:29:09.255Z,62.95
2017-11-21T18:31:35.682Z,63.04
2017-11-21T18:34:02.116Z,63.59
2017-11-21T18:36:29.164Z,64.10
2017-11-21T18:38:55.598Z,64.35
2017-11-21T18:41:22.123Z,64.03
2017-11-21T18:43:48.673Z,63.42
2017-11-21T18:46:15.117Z,63.03
2017-11-21T18:48:41.552Z,62.75
2017-11-21T18:51:07.978Z,62.76
2017-11-21T18:53:35.241Z,62.61
2017-11-21T18:56:01.667Z,62.87
2017-11-21T18:58:28.203Z,63.05
2017-11-21T19:00:54.646Z,63.37
2017-11-21T19:03:21.081Z,63.44
2017-11-21T19:05:47.515Z,63.37
2017-11-21T19:08:13.942Z,62.73
2017-11-21T19:10:41.094Z,62.66
2017-11-21T19:13:07.528Z,63.05
2017-11-21T19:15:33.963Z,63.12
2017-11-21T19:18:00.508Z,63.32
2017-11-21T19:20:26.937Z,63.33
2017-11-21T19:22:53.369Z,63.43
2017-11-21T19:25:19.803Z,63.50
2017-11-21T19:27:46.963Z,63.09
2017-11-21T19:30:13.393Z,62.93
2017-11-21T19:32:39.832Z,62.99
2017-11-21T19:35:06.260Z,64.24
2017-11-21T19:37:32.703Z,64.43
2017-11-21T19:39:59.128Z,64.68
2017-11-21T19:42:25.569Z,63.95
2017-11-21T19:44:52.717Z,63.67
2017-11-21T19:47:19.148Z,63.46
2017-11-21T19:49:45.591Z,63.18
2017-11-21T19:52:11.915Z,63.11
2017-11-21T19:54:38.461Z,63.67
2017-11-21T19:57:04.885Z,63.43
2017-11-21T19:59:31.258Z,63.13
2017-11-21T20:01:58.472Z,62.19
2017-11-21T20:04:24.907Z,62.70
2017-11-21T20:06:51.341Z,63.29
2017-11-21T20:09:17.775Z,63.27
2017-11-21T20:11:44.211Z,63.12
2017-11-21T20:14:10.653Z,62.87
2017-11-21T20:16:37.081Z,62.85
2017-11-21T20:19:04.240Z,62.70
2017-11-21T20:21:30.665Z,62.30
2017-11-21T20:23:57.102Z,63.20
2017-11-21T20:26:23.535Z,63.12
2017-11-21T20:28:49.981Z,62.66
2017-11-21T20:31:16.405Z,63.88
2017-11-21T20:33:42.839Z,64.36
2017-11-21T20:36:09.888Z,64.74
2017-11-21T20:38:36.425Z,64.89
2017-11-21T20:41:02.868Z,65.47
2017-11-21T20:43:29.226Z,65.43
2017-11-21T20:45:55.741Z,65.39
2017-11-21T20:48:22.171Z,65.38
2017-11-21T20:50:48.596Z,65.48
2017-11-21T20:53:15.728Z,65.41
2017-11-21T20:55:42.185Z,65.79
2017-11-21T20:58:08.619Z,64.88
2017-11-21T21:00:35.055Z,65.22
2017-11-21T21:03:01.499Z,65.25
2017-11-21T21:05:27.922Z,65.64
2017-11-21T21:07:54.358Z,65.73
2017-11-21T21:10:21.598Z,65.33
2017-11-21T21:12:48.045Z,65.47
2017-11-21T21:15:14.491Z,65.57
2017-11-21T21:17:40.920Z,65.41
2017-11-21T21:20:07.350Z,65.51
2017-11-21T21:22:33.785Z,66.15
2017-11-21T21:25:00.218Z,66.48
2017-11-21T21:27:27.472Z,66.67
2017-11-21T21:29:53.912Z,66.80
2017-11-21T21:32:20.355Z,66.84
2017-11-21T21:34:46.777Z,66.67
2017-11-21T21:37:13.219Z,66.12
2017-11-21T21:39:39.646Z,66.06
2017-11-21T21:42:06.084Z,66.36
2017-11-21T21:44:33.234Z,66.72
2017-11-21T21:46:59.667Z,66.67
2017-11-21T21:49:26.210Z,66.40
2017-11-21T21:51:52.637Z,66.41
2017-11-21T21:54:19.081Z,66.03
2017-11-21T21:56:45.511Z,65.77
2017-11-21T21:59:11.839Z,65.78
2017-11-21T22:01:39.091Z,65.34
2017-11-21T22:04:05.637Z,65.30
2017-11-21T22:06:32.064Z,64.93
2017-11-21T22:08:58.602Z,65.46
2017-11-21T22:11:25.036Z,66.24
2017-11-21T22:13:51.480Z,66.15
2017-11-21T22:16:17.912Z,65.85
2017-11-21T22:18:45.056Z,65.68
2017-11-21T22:21:11.501Z,66.08
2017-11-21T22:23:37.925Z,66.19
2017-11-21T22:26:04.365Z,66.38
2017-11-21T22:28:30.803Z,66.56
2017-11-21T22:30:57.230Z,67.00
2017-11-21T22:33:23.665Z,67.33
2017-11-21T22:35:50.918Z,68.00
2017-11-21T22:38:17.353Z,68.11
2017-11-21T22:40:43.787Z,68.32
2017-11-21T22:43:10.300Z,68.55
2017-11-21T22:45:36.769Z,68.71
2017-11-21T22:48:03.325Z,69.37
2017-11-21T22:50:29.731Z,69.80
2017-11-21T22:52:56.969Z,69.65
2017-11-21T22:55:23.421Z,69.65
2017-11-21T22:57:49.854Z,69.58
2017-11-21T23:00:16.371Z,69.77
2017-11-21T23:02:42.824Z,70.00
2017-11-21T23:05:09.195Z,70.45
2017-11-21T23:07:35.548Z,70.60
2017-11-21T23:10:02.816Z,70.59
2017-11-21T23:12:29.214Z,70.33
2017-11-21T23:14:55.616Z,70.09
2017-11-21T23:17:22.048Z,70.31
2017-11-21T23:19:48.585Z,70.69
2017-11-21T23:22:15.028Z,70.36
2017-11-21T23:24:41.464Z,69.90
2017-11-21T23:27:08.710Z,70.59
2017-11-21T23:29:35.153Z,70.81
2017-11-21T23:32:01.580Z,70.34
2017-11-21T23:34:27.952Z,69.63
2017-11-21T23:36:54.448Z,69.53
2017-11-21T23:39:20.890Z,68.61
2017-11-21T23:41:47.325Z,67.52
2017-11-21T23:44:14.477Z,67.34
2017-11-21T23:46:40.902Z,66.97
2017-11-21T23:49:07.347Z,66.38
2017-11-21T23:51:33.881Z,66.18
2017-11-21T23:54:00.306Z,67.17
2017-11-21T23:56:26.740Z,67.34
2017-11-21T23:58:53.177Z,66.87
